AirNav   Phillips 66 Aviation Fuel
 
 804 users online  

KJCA
(formerly 19A)
Jackson County Airport
Jefferson, Georgia, USA

GOING TO JEFFERSON?


FAA INFORMATION EFFECTIVE 23 MAY 2019

Location

FAA Identifier: JCA
Lat/Long: 34-10-34.1000N / 083-33-42.1000W
34-10.568333N / 083-33.701667W
34.1761389 / -83.5616944
(estimated)
Elevation: 950.5 ft. / 289.7 m (surveyed)
Variation: 05W (2010)
From city: 3 miles NE of JEFFERSON, GA
Time zone: UTC -4 (UTC -5 during Standard Time)
Zip code: 30529

Airport Operations

Airport use: Open to the public
Activation date: 11/1957
Control tower: no
ARTCC: ATLANTA CENTER
FSS: MACON FLIGHT SERVICE STATION
NOTAMs facility: MCN (NOTAM-D service available)
Attendance: MON-FRI 0800-1700
Wind indicator: lighted
Segmented circle: yes
Lights: MIRL RY 17/35 PRESET ON LOW INTST. TO INCR INTST - CTAF.
Beacon: white-green (lighted land airport)
Operates sunset to sunrise.

Airport Communications

CTAF/UNICOM: 122.8
WX AWOS-3PT: 118.125 (706-387-6477)
ATLANTA APPROACH: 132.475 ;(0615-2200)
ATLANTA DEPARTURE: 132.475 ;(0615-2200)
WX AWOS-3 at WDR (13 nm SW): 118.575 (770-868-0642)
WX ASOS at GVL (15 nm NW): 126.475 (770-532-4687)
WX ASOS at AHN (18 nm SE): 132.875 (706-613-7373)
WX AWOS-3 at AJR (19 nm N): 119.175 (706-778-3675)
  • APCH/DEP SVC PRVDD BY ATLANTA TRACON 0615-2200 ON FREQS 132.475/291.1 OTHER TIMES BY ATLANTA ARTCC ON FREQS 127.5/316.05 (ATHENS RCAG).

Nearby radio navigation aids

VOR radial/distance  VOR name  Freq  Var
AHNr319/18.1ATHENS VOR/DME109.6000E
ODFr203/33.8FOOTHILLS VORTAC113.4000E

 
NDB name  Hdg/Dist  Freq  Var  ID
BARROW COUNTY010/14.540405WBMW -... -- .--
FLOWERY BRANCH098/17.236503WFKV ..-. -.- ...-
BULLDOG311/21.722103WBJT -... .--- -
MONROE021/27.639204WJNM .--- -. --
ALCOVY022/34.637003WVOF ...- --- ..-.

Airport Services

Fuel available: 100LL JET-A+
Parking: hangars and tiedowns
Airframe service: MAJOR
Powerplant service: MINOR
Bottled oxygen: NONE
Bulk oxygen: NONE

Runway Information

Runway 17/35

Dimensions: 5010 x 75 ft. / 1527 x 23 m
Surface: asphalt, in good condition
Weight bearing capacity: 
Single wheel: 30.0
Double wheel: 43.0
Runway edge lights: medium intensity
RUNWAY 17  RUNWAY 35
Latitude: 34-10.963483N34-10.172013N
Longitude: 083-33.843592W083-33.559513W
Elevation: 931.1 ft.950.5 ft.
Traffic pattern: leftleft
Runway heading: 168 magnetic, 163 true348 magnetic, 343 true
Markings: nonprecision, in good conditionnonprecision, in good condition
Visual slope indicator: 2-light PAPI on left (3.00 degrees glide path)2-light PAPI on left (3.00 degrees glide path)
Touchdown point: yes, no lightsyes, no lights
Obstructions: 52 ft. trees, 980 ft. from runway, 375 ft. left of centerline, 15:1 slope to clear30 ft. trees, 860 ft. from runway, 200 ft. right of centerline, 22:1 slope to clear

Airport Ownership and Management from official FAA records

Ownership: Publicly-owned
Owner: JACKSON COUNTY, C/O COUNTY MGR.
67 ATHENS STREET
JEFFERSON, GA 30549
Phone 706-367-6314
Manager: TOM STRONG
500 SKY HARBOR DRIVE
JEFFERSON, GA 30549
Phone 706-367-1493

Airport Operational Statistics

Aircraft based on the field: 61
Single engine airplanes: 44
Multi engine airplanes: 2
Helicopters: 5
Ultralights: 10
    
Aircraft operations: avg 82/day *
70% transient general aviation
25% local general aviation
5% military
* for 12-month period ending 31 December 2018

Additional Remarks

DEER ON & INVOF ARPT.
FUEL 24 HR CREDIT CARD SVC AVBL.

Instrument Procedures

NOTE: All procedures below are presented as PDF files. If you need a reader for these files, you should download the free Adobe Reader.

NOT FOR NAVIGATION. Please procure official charts for flight.
FAA instrument procedures published for use from 23 May 2019 at 0901Z to 20 June 2019 at 0900Z.

 
IAPs - Instrument Approach Procedures
RNAV (GPS) RWY 17 **CHANGED**   download (232KB)
RNAV (GPS) RWY 35 **CHANGED**   download (215KB)
VOR/DME RWY 35 **CHANGED**   download (175KB)
NOTE: Special Alternate Minimums apply   download (48KB)
NOTE: Special Take-Off Minimums/Departure Procedures apply   download (288KB)

Other nearby airports with instrument procedures:

KWDR - Barrow County Airport (13 nm SW)
KGVL - Lee Gilmer Memorial Airport (15 nm NW)
KAHN - Athens/Ben Epps Airport (18 nm SE)
KAJR - Habersham County Airport (19 nm N)
KLZU - Gwinnett County Airport-Briscoe Field (23 nm SW)
 
Loc | Ops | Rwys | IFR | FBO | Links
Com | Nav | Svcs | Stats | Notes
Area around KJCA (Jackson County Airport)
 
Road maps at: MapQuest Bing Google
 
Aerial photo
WARNING: Photo may not be current or correct
Aerial photo of KJCA (Jackson County Airport)
Taken in 2009
looking north.

Do you have a better or more recent aerial photo of Jackson County Airport that you would like to share? If so, please send us your photo.

 
Sectional chart

 
Airport diagram
CAUTION: Diagram may not be current
Diagram of KJCA (Jackson County Airport)
 
Airport distance calculator
Flying to Jackson County Airport? Find the distance to fly.

From to KJCA

Sunrise and sunset
Times for 26-May-2019
 Local
(UTC-4)
 Zulu
(UTC)
Morning civil twilight05:5809:58
Sunrise06:2710:27
Sunset20:3600:36
Evening civil twilight21:0401:04

Current date and time
Zulu (UTC)  26-May-2019 12:19:30
Local (UTC-4)  26-May-2019 08:19:30
 
METAR
KJCA 261155Z AUTO 30003KT 10SM CLR 22/19 A3018 RMK AO2 T02250194 10238 20193
KWDR 
13nm SW 
261155Z AUTO 00000KT 10SM CLR 25/21 A3021 RMK AO2
KGVL 
15nm W 
261153Z AUTO 28004KT 10SM CLR 23/20 A3021 RMK AO2 SLP213 T02330200 10233 20200 53013
KAHN 
18nm SE 
261151Z 31003KT 10SM CLR 24/19 A3017 RMK AO2 SLP206 T02390194 10239 20200 53013
KAJR 
19nm N 
261155Z AUTO 04003KT 4SM HZ CLR 21/18 A3020 RMK AO2 T02110177 10215 20188
TAF
KAHN 
18nm SE 
261128Z 2612/2712 30004KT P6SM SKC FM261600 28006KT P6SM FEW050 FM262000 28007KT P6SM FEW060 FM270100 30003KT P6SM SKC FM271000 31003KT P6SM FEW250
NOTAMs
Click for the latest NOTAMs
NOTAMs are issued by the DoD/FAA and will open in a separate window not controlled by AirNav.

 

 
 

FBO, Fuel Providers, and Aircraft Ground Support

  
 Business Name 
 
 Contact 
 
 Services / Description 
 
Fuel Prices
 
Comments
  
 Jackson County
706-367-1493
[web site]
[email]
Airport management, Aviation fuel, Aircraft parking (ramp or tiedown), Hangar leasing / sales, Courtesy transportation, ...

More info about Jackson County
Shell
100LL Jet A
FS --- $4.29 
SS $4.39 $3.99 
GUARANTEED
 
   3 read write
FS=Full service
SS=Self service
Update Fuel Prices
 

Would you like to see your business listed on this page?

 If your business provides an interesting product or service to pilots, flight crews, aircraft, or users of the Jackson County Airport, you should consider listing it here.  To start the listing process, click on the button below
 
Add a business
 

Other Pages about Jackson County Airport

Jackson County Airport
 
Update a link
 
Copyright © AirNav, LLC. All rights reserved. Privacy Policy  Contact